Time;durP1;ratioP1;P1;durP2;ratioP2;P2;SDS_P1;SDS_P2;PMS_P1;PMS_P2;Temp;Humidity;BMP_temperature;BMP_pressure;BME280_temperature;BME280_humidity;BME280_pressure;Samples;Min_cycle;Max_cycle;Signal;HPM_P1;HPM_P2
2022/11/21 00:00:47;;;;;;;33.40;27.08;;;1.10;99.90;;;;;;4960620;28;88205;-34
2022/11/21 00:03:13;;;;;;;36.20;26.38;;;1.10;99.90;;;;;;4961334;28;90474;-32
2022/11/21 00:05:44;;;;;;;37.75;29.58;;;1.10;99.90;;;;;;4960386;28;89425;-32
2022/11/21 00:08:11;;;;;;;35.08;27.25;;;1.10;99.90;;;;;;4947114;28;89603;-32
2022/11/21 00:10:38;;;;;;;39.25;27.73;;;1.10;99.90;;;;;;4960254;28;88983;-31
2022/11/21 00:13:04;;;;;;;34.25;29.02;;;1.10;99.90;;;;;;4960891;28;90336;-30
2022/11/21 00:15:30;;;;;;;33.15;26.50;;;1.10;99.90;;;;;;4960160;28;89698;-31
2022/11/21 00:17:56;;;;;;;40.42;28.85;;;1.10;99.90;;;;;;4960220;28;89821;-31
2022/11/21 00:20:22;;;;;;;33.40;27.95;;;1.10;99.90;;;;;;4960895;28;89317;-34
2022/11/21 00:22:48;;;;;;;35.42;26.50;;;1.10;99.90;;;;;;4960050;28;90001;-33
2022/11/21 00:25:14;;;;;;;36.13;26.33;;;1.10;99.90;;;;;;4960216;28;89915;-33
2022/11/21 00:27:40;;;;;;;32.60;29.08;;;1.10;99.90;;;;;;4960567;28;90980;-31
2022/11/21 00:30:08;;;;;;;34.95;26.35;;;1.10;99.90;;;;;;4960502;28;87968;-31
2022/11/21 00:32:34;;;;;;;31.10;26.23;;;1.10;99.90;;;;;;4960518;28;91833;-31
2022/11/21 00:34:59;;;;;;;34.97;27.48;;;1.10;99.90;;;;;;4960751;28;89659;-30
2022/11/21 00:37:25;;;;;;;34.38;28.05;;;1.10;99.90;;;;;;4959816;28;89500;-32
2022/11/21 00:39:50;;;;;;;33.17;27.75;;;1.10;99.90;;;;;;4960685;28;87506;-32
2022/11/21 00:42:16;;;;;;;34.15;27.83;;;1.10;99.90;;;;;;4960410;28;90206;-31
2022/11/21 00:44:42;;;;;;;31.15;26.08;;;1.10;99.90;;;;;;4960387;28;91080;-31
2022/11/21 00:47:07;;;;;;;42.60;29.23;;;1.10;99.90;;;;;;4959913;28;91757;-31
2022/11/21 00:49:33;;;;;;;33.00;26.90;;;1.10;99.90;;;;;;4960037;28;88995;-34
2022/11/21 00:51:58;;;;;;;33.85;27.00;;;1.10;99.90;;;;;;4960659;28;91873;-31
2022/11/21 00:54:24;;;;;;;33.83;27.27;;;1.10;99.90;;;;;;4959762;28;89468;-34
2022/11/21 00:56:50;;;;;;;33.42;26.83;;;1.10;99.90;;;;;;4961085;28;89615;-32
2022/11/21 00:59:15;;;;;;;34.67;25.80;;;1.10;99.90;;;;;;4959990;28;87635;-32
2022/11/21 01:01:41;;;;;;;36.40;29.48;;;1.10;99.90;;;;;;4960481;28;90073;-34
2022/11/21 01:04:06;;;;;;;38.30;28.98;;;1.10;99.90;;;;;;4959875;28;91220;-32
2022/11/21 01:06:32;;;;;;;32.65;24.63;;;1.00;99.90;;;;;;4959846;28;89632;-31
2022/11/21 01:08:58;;;;;;;31.85;27.25;;;1.00;99.90;;;;;;4960044;28;89319;-30
2022/11/21 01:11:23;;;;;;;31.67;25.77;;;1.00;99.90;;;;;;4958326;28;88831;-37
2022/11/21 01:13:52;;;;;;;31.20;26.15;;;1.00;99.90;;;;;;4960235;28;89788;-33
2022/11/21 01:16:20;;;;;;;31.95;28.10;;;1.00;99.90;;;;;;4960009;28;89526;-32
2022/11/21 01:18:46;;;;;;;37.50;30.90;;;0.90;99.90;;;;;;4959653;28;89967;-32
2022/11/21 01:21:14;;;;;;;33.10;27.17;;;0.90;99.90;;;;;;4959649;28;89038;-34
2022/11/21 01:23:40;;;;;;;31.77;25.30;;;0.90;99.90;;;;;;4959738;28;90050;-34
2022/11/21 01:26:09;;;;;;;37.80;28.58;;;0.80;99.90;;;;;;4960208;28;89674;-32
2022/11/21 01:28:35;;;;;;;38.13;28.77;;;0.80;99.90;;;;;;4959352;28;88294;-31
2022/11/21 01:31:05;;;;;;;42.03;27.40;;;0.80;99.90;;;;;;4959743;28;90290;-32
2022/11/21 01:33:30;;;;;;;29.52;24.92;;;0.70;99.90;;;;;;4958878;28;90769;-33
2022/11/21 01:35:56;;;;;;;35.15;28.30;;;0.70;99.90;;;;;;4960416;28;90526;-31
2022/11/21 01:38:22;;;;;;;36.95;27.48;;;0.70;99.90;;;;;;4959462;28;89086;-32
2022/11/21 01:40:47;;;;;;;31.15;27.58;;;0.70;99.90;;;;;;4959835;28;90862;-33
2022/11/21 01:43:14;;;;;;;40.40;30.55;;;0.70;99.90;;;;;;4959615;28;89471;-32
2022/11/21 01:45:55;;;;;;;38.20;29.75;;;0.70;99.90;;;;;;4959391;28;89857;-32
2022/11/21 01:48:44;;;;;;;30.67;26.70;;;0.70;99.90;;;;;;4959330;28;88304;-34
2022/11/21 01:51:15;;;;;;;33.10;26.85;;;0.70;99.90;;;;;;4921498;28;89834;-34
2022/11/21 01:53:44;;;;;;;34.55;28.70;;;0.70;99.90;;;;;;4958799;28;90669;-34
2022/11/21 01:56:10;;;;;;;38.92;27.85;;;0.70;99.90;;;;;;4959032;28;91095;-30
2022/11/21 01:58:38;;;;;;;33.78;28.67;;;0.70;99.90;;;;;;4959343;28;88552;-33
2022/11/21 02:01:04;;;;;;;36.25;27.95;;;0.60;99.90;;;;;;4959696;28;90095;-32
2022/11/21 02:03:34;;;;;;;35.50;27.40;;;0.60;99.90;;;;;;4958599;28;89612;-32
2022/11/21 02:06:00;;;;;;;37.05;26.92;;;0.50;99.90;;;;;;4959443;28;88821;-31
2022/11/21 02:08:26;;;;;;;33.65;28.30;;;0.50;99.90;;;;;;4959140;28;87730;-31
2022/11/21 02:11:15;;;;;;;39.60;29.75;;;0.50;99.90;;;;;;4959716;28;90165;-32
2022/11/21 02:13:41;;;;;;;31.52;26.13;;;0.40;99.90;;;;;;4955826;28;94844;-32
2022/11/21 02:16:07;;;;;;;33.35;26.45;;;0.40;99.90;;;;;;4956587;28;95071;-31
2022/11/21 02:18:33;;;;;;;38.97;27.52;;;0.30;99.90;;;;;;4956755;28;93076;-33
2022/11/21 02:21:31;;;;;;;32.88;26.35;;;0.30;99.90;;;;;;4957301;28;93531;-31
2022/11/21 02:24:14;;;;;;;36.53;25.90;;;0.20;99.90;;;;;;4919027;28;95708;-34
2022/11/21 02:26:41;;;;;;;30.85;26.15;;;0.20;99.90;;;;;;4955842;28;95410;-31
2022/11/21 02:29:06;;;;;;;36.15;28.00;;;0.20;99.90;;;;;;4956603;28;93691;-31
2022/11/21 02:31:32;;;;;;;30.10;26.55;;;0.10;99.90;;;;;;4955573;28;93431;-32
2022/11/21 02:33:57;;;;;;;34.85;26.88;;;0.00;99.90;;;;;;4956267;28;94630;-31
2022/11/21 02:36:36;;;;;;;31.83;28.00;;;0.00;99.90;;;;;;4956073;28;95812;-37
2022/11/21 02:39:02;;;;;;;33.13;26.77;;;-0.10;99.90;;;;;;4956463;28;92393;-31
2022/11/21 02:41:29;;;;;;;37.03;27.98;;;-0.10;99.90;;;;;;4954691;28;91427;-31
2022/11/21 02:44:02;;;;;;;34.35;26.90;;;-0.20;99.90;;;;;;4956614;28;94643;-30
2022/11/21 02:46:28;;;;;;;33.33;26.00;;;-0.20;99.90;;;;;;4955472;28;95060;-31
2022/11/21 02:48:56;;;;;;;30.58;25.55;;;-0.20;99.90;;;;;;4954468;28;95405;-31
2022/11/21 02:51:21;;;;;;;35.03;27.37;;;-0.30;99.90;;;;;;4956658;28;93235;-31
2022/11/21 02:53:47;;;;;;;35.08;25.90;;;-0.30;99.90;;;;;;4955340;28;93355;-30
2022/11/21 02:56:12;;;;;;;32.75;26.80;;;-0.40;99.90;;;;;;4956738;28;94389;-32
2022/11/21 02:58:38;;;;;;;38.00;27.70;;;-0.40;99.90;;;;;;4954290;28;94112;-33
2022/11/21 03:01:04;;;;;;;34.08;27.17;;;-0.50;99.90;;;;;;4955882;28;92959;-31
2022/11/21 03:03:29;;;;;;;33.65;28.23;;;-0.50;99.90;;;;;;4955958;28;94880;-34
2022/11/21 03:05:55;;;;;;;37.28;28.33;;;-0.50;99.90;;;;;;4955914;28;94518;-32
2022/11/21 03:08:21;;;;;;;36.35;27.63;;;-0.50;99.90;;;;;;4956664;28;94311;-31
2022/11/21 03:10:47;;;;;;;33.15;26.63;;;-0.40;99.90;;;;;;4955459;28;93050;-30
2022/11/21 03:13:12;;;;;;;35.13;26.63;;;-0.40;99.90;;;;;;4955327;28;96018;-34
2022/11/21 03:15:38;;;;;;;41.33;29.38;;;-0.50;99.90;;;;;;4955938;28;94642;-33
2022/11/21 03:18:04;;;;;;;38.15;28.67;;;-0.50;99.90;;;;;;4955493;28;93699;-31
2022/11/21 03:20:31;;;;;;;32.45;27.00;;;-0.50;99.90;;;;;;4955714;28;94650;-33
2022/11/21 03:22:57;;;;;;;34.05;27.10;;;-0.50;99.90;;;;;;4955533;28;94675;-31
2022/11/21 03:25:23;;;;;;;30.83;26.73;;;-0.60;99.90;;;;;;4956188;28;94398;-34
2022/11/21 03:27:52;;;;;;;35.90;28.52;;;-0.60;99.90;;;;;;4956269;28;93387;-31
2022/11/21 03:30:20;;;;;;;35.05;25.92;;;-0.60;99.90;;;;;;4956128;28;91988;-31
2022/11/21 03:32:46;;;;;;;35.03;27.20;;;-0.60;99.90;;;;;;4954950;28;97064;-32
2022/11/21 03:35:12;;;;;;;31.38;28.17;;;-0.60;99.90;;;;;;4955738;28;93187;-34
2022/11/21 03:37:37;;;;;;;35.25;27.70;;;-0.60;99.90;;;;;;4954963;28;93924;-33
2022/11/21 03:40:03;;;;;;;36.97;27.92;;;-0.60;99.90;;;;;;4955289;28;94627;-34
2022/11/21 03:42:29;;;;;;;32.25;26.10;;;-0.70;99.90;;;;;;4956827;28;94563;-32
2022/11/21 03:44:55;;;;;;;37.10;27.27;;;-0.70;99.90;;;;;;4957241;28;94621;-33
2022/11/21 03:47:21;;;;;;;37.28;29.20;;;-0.70;99.90;;;;;;4959400;28;93094;-30
2022/11/21 03:49:47;;;;;;;31.13;25.33;;;-0.70;99.90;;;;;;4959293;28;93839;-32
2022/11/21 03:52:12;;;;;;;38.50;28.65;;;-0.70;99.90;;;;;;4958421;28;94293;-33
2022/11/21 03:54:38;;;;;;;35.38;27.38;;;-0.70;99.90;;;;;;4958930;28;94515;-31
2022/11/21 03:57:03;;;;;;;31.38;27.27;;;-0.70;99.90;;;;;;4958731;28;94641;-31
2022/11/21 03:59:29;;;;;;;34.60;27.55;;;-0.70;99.90;;;;;;4958469;28;93821;-30
2022/11/21 04:01:54;;;;;;;31.05;26.23;;;-0.80;99.90;;;;;;4957990;28;95645;-31
2022/11/21 04:04:20;;;;;;;35.42;25.15;;;-0.90;99.90;;;;;;4958706;28;95354;-32
2022/11/21 04:06:46;;;;;;;28.42;23.98;;;-0.90;99.90;;;;;;4958220;28;94394;-31
2022/11/21 04:09:12;;;;;;;34.60;26.50;;;-1.00;99.90;;;;;;4958453;28;92987;-31
2022/11/21 04:11:38;;;;;;;31.17;26.13;;;-1.00;99.90;;;;;;4958017;28;94480;-31
2022/11/21 04:14:03;;;;;;;31.38;24.63;;;-1.00;99.90;;;;;;4957360;28;94602;-30
2022/11/21 04:16:29;;;;;;;37.53;26.17;;;-1.00;99.90;;;;;;4959170;28;93314;-33
2022/11/21 04:18:54;;;;;;;39.35;27.05;;;-1.00;99.90;;;;;;4958820;28;91752;-31
2022/11/21 04:21:20;;;;;;;33.58;26.38;;;-1.00;99.90;;;;;;4957991;28;94809;-31
2022/11/21 04:23:46;;;;;;;31.48;27.25;;;-1.00;99.90;;;;;;4958081;28;94502;-32
2022/11/21 04:26:11;;;;;;;36.30;28.13;;;-1.00;99.90;;;;;;4957696;28;93733;-31
2022/11/21 04:28:37;;;;;;;40.90;30.92;;;-1.00;99.90;;;;;;4958341;28;93739;-32
2022/11/21 04:31:04;;;;;;;33.78;26.88;;;-1.00;99.90;;;;;;4957628;28;94768;-30
2022/11/21 04:33:30;;;;;;;34.83;26.80;;;-1.00;99.90;;;;;;4956140;28;94723;-35
2022/11/21 04:35:55;;;;;;;31.73;25.83;;;-1.00;99.90;;;;;;4958680;28;93231;-32
2022/11/21 04:38:21;;;;;;;35.67;27.85;;;-1.00;99.90;;;;;;4958308;28;94587;-32
2022/11/21 04:40:46;;;;;;;36.30;28.17;;;-1.00;99.90;;;;;;4957550;28;94815;-32
2022/11/21 04:43:12;;;;;;;39.63;27.77;;;-1.00;99.90;;;;;;4958058;28;94573;-33
2022/11/21 04:45:38;;;;;;;36.72;27.23;;;-1.00;99.90;;;;;;4958540;28;93489;-32
2022/11/21 04:48:03;;;;;;;38.60;30.33;;;-1.00;99.90;;;;;;4958302;28;94756;-32
2022/11/21 04:50:29;;;;;;;39.13;28.17;;;-1.00;99.90;;;;;;4957197;28;95370;-34
2022/11/21 04:52:56;;;;;;;35.20;27.20;;;-1.00;99.90;;;;;;4957242;28;95741;-31
2022/11/21 04:55:26;;;;;;;36.90;26.98;;;-1.00;99.90;;;;;;4957367;28;92216;-33
2022/11/21 04:57:52;;;;;;;40.20;29.88;;;-1.00;99.90;;;;;;4958293;28;93930;-32
2022/11/21 05:00:17;;;;;;;37.95;28.90;;;-0.90;99.90;;;;;;4957447;28;94439;-34
2022/11/21 05:02:43;;;;;;;39.80;29.40;;;-1.00;99.90;;;;;;4957351;28;95539;-30
2022/11/21 05:05:09;;;;;;;33.72;28.73;;;-1.00;99.90;;;;;;4957183;28;92155;-31
2022/11/21 05:07:36;;;;;;;44.28;30.15;;;-1.00;99.90;;;;;;4958032;28;93415;-31
2022/11/21 05:10:02;;;;;;;34.45;26.08;;;-1.00;99.90;;;;;;4957872;28;94663;-31
2022/11/21 05:15:12;;;;;;;35.15;26.25;;;-1.10;99.90;;;;;;4956843;28;95555;-31
2022/11/21 05:17:38;;;;;;;39.47;27.30;;;-1.10;99.90;;;;;;4956741;28;93278;-30
2022/11/21 05:20:04;;;;;;;37.25;27.23;;;-1.20;99.90;;;;;;4957390;28;94693;-33
2022/11/21 05:22:29;;;;;;;35.30;28.48;;;-1.20;99.90;;;;;;4956597;28;94713;-32
2022/11/21 05:24:55;;;;;;;31.67;28.13;;;-1.30;99.90;;;;;;4957769;28;92561;-30
2022/11/21 05:27:21;;;;;;;45.17;29.63;;;-1.30;99.90;;;;;;4957588;28;92652;-33
2022/11/21 05:29:46;;;;;;;35.78;27.63;;;-1.30;99.90;;;;;;4956294;28;94725;-31
2022/11/21 05:32:12;;;;;;;34.70;28.30;;;-1.30;99.90;;;;;;4957627;28;94584;-32
2022/11/21 05:34:37;;;;;;;38.08;30.15;;;-1.30;99.90;;;;;;4957060;28;92615;-33
2022/11/21 05:37:03;;;;;;;37.13;28.50;;;-1.30;99.90;;;;;;4957661;28;93192;-32
2022/11/21 05:39:29;;;;;;;36.45;27.70;;;-1.30;99.90;;;;;;4956008;28;95957;-33
2022/11/21 05:41:54;;;;;;;40.13;29.63;;;-1.30;99.90;;;;;;4956567;28;95119;-31
2022/11/21 05:44:20;;;;;;;36.30;26.90;;;-1.30;99.90;;;;;;4957803;28;92384;-31
2022/11/21 05:46:46;;;;;;;39.70;30.67;;;-1.30;99.90;;;;;;4948797;28;92578;-30
2022/11/21 05:49:11;;;;;;;43.17;28.38;;;-1.30;99.90;;;;;;4957230;28;95020;-29
2022/11/21 05:51:37;;;;;;;33.55;26.58;;;-1.30;99.90;;;;;;4955914;28;94713;-32
2022/11/21 05:54:03;;;;;;;32.65;26.23;;;-1.30;99.90;;;;;;4957017;28;94515;-34
2022/11/21 05:56:29;;;;;;;43.30;30.33;;;-1.30;99.90;;;;;;4957082;28;92369;-32
2022/11/21 05:58:56;;;;;;;37.15;29.25;;;-1.40;99.90;;;;;;4956450;28;94941;-30
2022/11/21 06:04:07;;;;;;;34.22;26.05;;;-1.40;99.90;;;;;;4941498;28;93230;-32
2022/11/21 06:06:33;;;;;;;30.52;26.75;;;-1.40;99.90;;;;;;4955796;28;93277;-34
2022/11/21 06:08:59;;;;;;;34.90;26.92;;;-1.50;99.90;;;;;;4954990;28;95316;-31
2022/11/21 06:11:25;;;;;;;39.40;28.77;;;-1.60;99.90;;;;;;4955700;28;94553;-32
2022/11/21 06:13:51;;;;;;;40.40;29.25;;;-1.50;99.90;;;;;;4956980;28;94661;-34
2022/11/21 06:16:18;;;;;;;35.50;27.75;;;-1.50;99.90;;;;;;4956287;28;93276;-29
2022/11/21 06:18:46;;;;;;;36.78;29.30;;;-1.50;99.90;;;;;;4956089;28;95245;-33
2022/11/21 06:21:14;;;;;;;33.83;27.58;;;-1.40;99.90;;;;;;4956198;28;94568;-30
2022/11/21 06:23:40;;;;;;;38.40;27.27;;;-1.40;99.90;;;;;;4956894;28;93373;-33
2022/11/21 06:26:08;;;;;;;36.65;28.60;;;-1.40;99.90;;;;;;4955998;28;94096;-32
2022/11/21 06:28:36;;;;;;;39.90;29.08;;;-1.40;99.90;;;;;;4955622;28;96263;-32
2022/11/21 06:31:07;;;;;;;35.25;27.67;;;-1.40;99.90;;;;;;4956109;28;95225;-31
2022/11/21 06:33:34;;;;;;;32.65;26.63;;;-1.30;99.90;;;;;;4956184;28;93437;-34
2022/11/21 06:36:04;;;;;;;40.20;31.17;;;-1.30;99.90;;;;;;4956289;28;94669;-34
2022/11/21 06:38:30;;;;;;;40.17;31.50;;;-1.30;99.90;;;;;;4955448;28;94851;-33
2022/11/21 06:40:55;;;;;;;46.05;34.22;;;-1.20;99.90;;;;;;4956169;28;94317;-34
2022/11/21 06:43:21;;;;;;;39.08;32.65;;;-1.20;99.90;;;;;;4955922;28;93911;-33
2022/11/21 06:45:46;;;;;;;39.80;29.77;;;-1.20;99.90;;;;;;4956606;28;91945;-32
2022/11/21 06:48:12;;;;;;;40.95;30.15;;;-1.30;99.90;;;;;;4955742;28;94731;-34
2022/11/21 06:50:37;;;;;;;43.17;30.05;;;-1.30;99.90;;;;;;4955591;28;94645;-32
2022/11/21 06:53:03;;;;;;;37.45;29.75;;;-1.30;99.90;;;;;;4956067;28;95570;-31
2022/11/21 06:55:30;;;;;;;39.85;29.83;;;-1.40;99.90;;;;;;4955940;28;92279;-31
2022/11/21 06:57:59;;;;;;;39.92;29.63;;;-1.40;99.90;;;;;;4956188;28;93833;-32
2022/11/21 07:00:27;;;;;;;38.70;29.77;;;-1.40;99.90;;;;;;4956054;28;94565;-34
2022/11/21 07:02:53;;;;;;;;;;;-1.40;99.90;;;;;;4957356;28;93016;-31
2022/11/21 07:05:19;;;;;;;34.25;26.63;;;-1.40;99.90;;;;;;4957953;28;92142;-31
2022/11/21 07:07:44;;;;;;;39.83;28.85;;;-1.40;99.90;;;;;;4955546;28;95042;-32
2022/11/21 07:10:10;;;;;;;38.80;30.52;;;-1.40;99.90;;;;;;4956116;28;94569;-32
2022/11/21 07:15:20;;;;;;;37.70;29.35;;;-1.50;99.90;;;;;;4946790;28;92621;-32
2022/11/21 07:17:46;;;;;;;45.50;32.28;;;-1.50;99.90;;;;;;4957528;28;95719;-31
2022/11/21 07:20:12;;;;;;;41.88;32.25;;;-1.50;99.90;;;;;;4959261;28;95580;-33
2022/11/21 07:22:38;;;;;;;46.42;30.83;;;-1.50;99.90;;;;;;4958494;28;92243;-30
2022/11/21 07:25:04;;;;;;;41.00;31.13;;;-1.60;99.90;;;;;;4959394;28;93987;-34
2022/11/21 07:27:29;;;;;;;43.92;30.17;;;-1.60;99.90;;;;;;4957052;28;94645;-33
2022/11/21 07:29:57;;;;;;;40.42;31.35;;;-1.60;99.90;;;;;;4955987;28;94544;-32
2022/11/21 07:32:26;;;;;;;36.73;30.00;;;-1.60;99.90;;;;;;4957484;28;93225;-32
2022/11/21 07:34:53;;;;;;;38.03;30.67;;;-1.60;99.90;;;;;;4957409;28;93638;-31
2022/11/21 07:37:18;;;;;;;35.03;28.05;;;-1.70;99.90;;;;;;4957242;28;93637;-30
2022/11/21 07:39:44;;;;;;;44.60;30.63;;;-1.70;99.90;;;;;;4950399;28;94564;-31
2022/11/21 07:42:09;;;;;;;39.70;30.52;;;-1.60;99.90;;;;;;4956744;28;95436;-31
2022/11/21 07:44:35;;;;;;;42.08;29.27;;;-1.60;99.90;;;;;;4955822;28;93138;-30
2022/11/21 07:47:01;;;;;;;38.40;28.80;;;-1.60;99.90;;;;;;4956350;28;96123;-32
2022/11/21 07:49:27;;;;;;;43.05;31.65;;;-1.60;99.90;;;;;;4956401;28;95496;-31
2022/11/21 07:51:52;;;;;;;45.25;32.05;;;-1.50;99.90;;;;;;4957405;28;92093;-33
2022/11/21 07:54:18;;;;;;;38.80;31.80;;;-1.50;99.90;;;;;;4957191;28;92926;-31
2022/11/21 07:56:43;;;;;;;38.95;29.90;;;-1.40;99.90;;;;;;4955936;28;94888;-31
2022/11/21 07:59:09;;;;;;;41.65;31.70;;;-1.40;99.90;;;;;;4957071;28;94796;-31
2022/11/21 08:01:35;;;;;;;39.15;32.25;;;-1.40;99.90;;;;;;4963260;28;93121;-31
2022/11/21 08:04:00;;;;;;;39.80;30.30;;;-1.40;99.90;;;;;;4956420;28;93874;-34
2022/11/21 08:06:26;;;;;;;39.75;30.83;;;-1.40;99.90;;;;;;4953948;28;96855;-31
2022/11/21 08:08:53;;;;;;;44.38;32.05;;;-1.30;99.90;;;;;;4956328;28;96128;-30
2022/11/21 08:11:18;;;;;;;45.30;32.15;;;-1.30;99.90;;;;;;4959956;28;94502;-32
2022/11/21 08:13:44;;;;;;;39.97;32.08;;;-1.20;99.90;;;;;;4958007;28;93131;-34
2022/11/21 08:16:10;;;;;;;36.72;31.55;;;-1.10;99.90;;;;;;4956382;28;94839;-30
2022/11/21 08:18:35;;;;;;;43.75;30.88;;;-1.10;99.90;;;;;;4961883;28;95976;-32
2022/11/21 08:21:02;;;;;;;40.30;31.10;;;-1.10;99.90;;;;;;4958793;28;94443;-32
2022/11/21 08:23:28;;;;;;;43.85;33.50;;;-1.00;99.90;;;;;;4958805;28;92067;-32
2022/11/21 08:25:54;;;;;;;42.33;32.42;;;-1.00;99.90;;;;;;4958301;28;94558;-34
2022/11/21 08:28:19;;;;;;;42.40;31.52;;;-0.90;99.90;;;;;;4957593;28;94254;-30
2022/11/21 08:30:45;;;;;;;46.05;33.50;;;-0.90;99.90;;;;;;4956754;28;94023;-33
2022/11/21 08:33:10;;;;;;;42.97;33.10;;;-0.80;99.90;;;;;;4957488;28;94388;-30
2022/11/21 08:35:37;;;;;;;40.83;32.22;;;-0.80;99.90;;;;;;4957848;28;94632;-30
2022/11/21 08:38:03;;;;;;;38.33;29.95;;;-0.70;99.90;;;;;;4958067;28;94303;-30
2022/11/21 08:40:30;;;;;;;54.63;33.33;;;-0.70;99.90;;;;;;4957881;28;93866;-33
2022/11/21 08:43:07;;;;;;;48.00;35.58;;;-0.70;99.90;;;;;;4957689;28;93478;-31
2022/11/21 08:45:35;;;;;;;46.33;35.38;;;-0.60;99.90;;;;;;4956815;28;95363;-33
2022/11/21 08:48:01;;;;;;;47.65;35.78;;;-0.50;99.90;;;;;;4957653;28;94861;-32
2022/11/21 08:50:30;;;;;;;46.58;36.10;;;-0.40;99.90;;;;;;4957904;28;94573;-30
2022/11/21 08:53:00;;;;;;;41.75;33.22;;;-0.30;99.90;;;;;;4961406;28;94228;-31
2022/11/21 08:55:26;;;;;;;47.97;36.83;;;-0.20;99.90;;;;;;4970741;28;96172;-30
2022/11/21 08:57:52;;;;;;;43.80;33.50;;;-0.10;99.90;;;;;;4971530;28;95559;-31
2022/11/21 09:00:18;;;;;;;42.67;35.67;;;0.00;99.90;;;;;;4960094;28;93237;-32
2022/11/21 09:02:43;;;;;;;43.97;35.50;;;0.00;99.90;;;;;;4957771;28;94432;-30
2022/11/21 09:05:09;;;;;;;41.38;33.78;;;0.10;99.90;;;;;;4957027;28;95004;-31
2022/11/21 09:07:35;;;;;;;45.72;34.42;;;0.10;99.90;;;;;;4957760;28;94199;-31
2022/11/21 09:10:01;;;;;;;42.65;34.38;;;0.20;99.90;;;;;;4957628;28;94510;-33
2022/11/21 09:12:26;;;;;;;42.15;33.53;;;0.20;99.90;;;;;;4957478;28;92741;-31
2022/11/21 09:20:22;;;;;;;47.25;35.08;;;0.50;99.90;;;;;;4939027;28;94374;-34
2022/11/21 09:22:47;;;;;;;51.97;37.53;;;0.60;99.90;;;;;;4936934;28;93552;-33
2022/11/21 09:25:13;;;;;;;45.83;33.63;;;0.70;99.90;;;;;;4937670;28;93341;-33
2022/11/21 09:27:38;;;;;;;46.17;33.67;;;0.80;99.90;;;;;;4937766;28;94580;-33
2022/11/21 09:30:04;;;;;;;51.20;36.67;;;0.80;99.90;;;;;;4937964;28;93148;-33
2022/11/21 09:32:30;;;;;;;44.22;33.78;;;0.90;99.90;;;;;;4938299;28;93197;-34
2022/11/21 09:34:56;;;;;;;45.40;34.05;;;0.90;99.90;;;;;;4937671;28;94559;-33
2022/11/21 09:37:21;;;;;;;45.65;33.40;;;0.90;99.90;;;;;;4937935;28;94582;-34
2022/11/21 09:39:47;;;;;;;44.00;34.92;;;0.90;99.90;;;;;;4936894;28;93570;-31
2022/11/21 09:42:34;;;;;;;46.55;33.40;;;0.90;99.90;;;;;;4937923;28;93048;-32
2022/11/21 09:45:08;;;;;;;43.03;32.05;;;0.90;99.90;;;;;;4937503;28;94584;-32
2022/11/21 09:47:44;;;;;;;44.33;33.90;;;0.90;99.90;;;;;;4937100;28;95511;-32
2022/11/21 09:50:20;;;;;;;49.63;36.13;;;0.90;99.90;;;;;;4938071;28;92470;-32
2022/11/21 09:52:48;;;;;;;48.75;35.03;;;0.90;99.90;;;;;;4937778;28;93007;-33
2022/11/21 09:55:40;;;;;;;51.53;38.10;;;0.90;99.90;;;;;;4937521;28;96126;-30
2022/11/21 09:58:20;;;;;;;47.50;36.80;;;0.90;99.90;;;;;;4937437;28;95443;-31
2022/11/21 10:00:45;;;;;;;42.95;34.08;;;0.90;99.90;;;;;;4937397;28;93600;-33
2022/11/21 10:03:12;;;;;;;43.30;34.25;;;1.00;99.90;;;;;;4938535;28;91424;-30
2022/11/21 10:05:46;;;;;;;51.90;36.95;;;1.00;99.90;;;;;;4936705;28;94355;-34
2022/11/21 10:08:46;;;;;;;47.22;33.83;;;1.00;99.90;;;;;;4937287;28;94863;-33
2022/11/21 10:11:31;;;;;;;48.15;38.13;;;1.00;99.90;;;;;;4935357;28;94565;-30
2022/11/21 10:14:09;;;;;;;45.80;35.92;;;1.00;99.90;;;;;;4937186;28;94054;-31
2022/11/21 10:16:48;;;;;;;48.92;35.28;;;1.00;99.90;;;;;;4936704;28;94704;-33
2022/11/21 10:19:27;;;;;;;47.90;38.25;;;1.10;99.90;;;;;;4936971;28;96544;-32
2022/11/21 10:22:04;;;;;;;46.13;33.55;;;1.20;99.90;;;;;;4937208;28;94134;-32
2022/11/21 10:24:45;;;;;;;54.10;36.60;;;1.20;99.90;;;;;;4922737;28;94754;-32
2022/11/21 10:27:28;;;;;;;44.30;36.53;;;1.30;99.90;;;;;;4936994;28;94809;-31
2022/11/21 10:30:05;;;;;;;47.92;37.83;;;1.30;99.90;;;;;;4935173;28;93529;-31
2022/11/21 10:32:37;;;;;;;51.67;39.67;;;1.30;99.90;;;;;;4931352;28;93346;-32
2022/11/21 10:35:13;;;;;;;52.05;37.53;;;1.30;99.90;;;;;;4932845;28;93451;-32
2022/11/21 10:37:48;;;;;;;53.20;40.50;;;1.40;99.90;;;;;;4917007;28;96023;-33
2022/11/21 10:40:34;;;;;;;46.33;35.47;;;1.40;99.90;;;;;;4917163;28;96350;-30
2022/11/21 10:45:15;;;;;;;44.80;32.75;;;1.50;99.90;;;;;;4916050;28;92199;-31
2022/11/21 10:45:47;;;;;;;52.67;40.13;;;1.50;99.90;;;;;;4912209;28;93082;-32
2022/11/21 10:48:13;;;;;;;55.25;40.47;;;1.50;99.90;;;;;;4907563;28;95157;-32
2022/11/21 10:51:01;;;;;;;59.17;42.05;;;1.50;99.90;;;;;;4912581;28;94294;-31
2022/11/21 10:56:19;;;;;;;46.38;36.30;;;1.50;99.90;;;;;;4922459;28;91968;-32
2022/11/21 10:58:50;;;;;;;56.72;39.53;;;1.60;99.90;;;;;;4919874;28;94552;-33
2022/11/21 11:01:28;;;;;;;62.00;39.42;;;1.70;99.90;;;;;;4902196;28;95034;-33
2022/11/21 11:04:09;;;;;;;51.95;39.50;;;1.70;99.90;;;;;;4910387;28;94374;-32
2022/11/21 11:06:40;;;;;;;56.28;39.95;;;1.80;99.90;;;;;;4914470;28;93145;-34
2022/11/21 11:09:06;;;;;;;57.08;41.03;;;1.90;99.90;;;;;;4914486;28;94821;-33
2022/11/21 11:11:32;;;;;;;53.28;40.75;;;2.00;99.90;;;;;;4913980;28;94853;-31
2022/11/21 11:14:11;;;;;;;51.40;36.72;;;2.10;99.90;;;;;;4914609;28;94000;-31
2022/11/21 11:16:45;;;;;;;49.22;38.55;;;2.10;99.90;;;;;;4914525;28;94049;-32
2022/11/21 11:19:14;;;;;;;55.85;37.38;;;2.20;99.90;;;;;;4913756;28;94763;-32
2022/11/21 11:21:39;;;;;;;;;;;2.30;99.90;;;;;;4914011;28;94640;-30
2022/11/21 11:24:08;;;;;;;40.17;30.65;;;2.30;99.90;;;;;;4915544;28;93251;-33
2022/11/21 11:26:34;;;;;;;;;;;2.40;99.90;;;;;;4914960;28;93546;-32
2022/11/21 11:29:20;;;;;;;36.17;28.95;;;2.50;99.90;;;;;;4916364;28;95731;-31
2022/11/21 11:31:56;;;;;;;42.10;30.02;;;2.60;99.90;;;;;;4913906;28;95244;-31
2022/11/21 11:34:42;;;;;;;40.83;29.48;;;2.70;99.90;;;;;;4915449;28;94586;-31
2022/11/21 11:37:18;;;;;;;33.40;25.20;;;2.70;99.90;;;;;;4913902;28;94750;-32
2022/11/21 11:40:21;;;;;;;38.45;27.50;;;2.80;99.90;;;;;;4913910;28;94604;-31
2022/11/21 11:49:31;;;;;;;28.42;23.42;;;3.00;99.90;;;;;;4914191;28;91573;-34
2022/11/21 11:52:02;;;;;;;27.63;20.40;;;3.00;99.90;;;;;;4912881;28;94649;-31
2022/11/21 11:54:38;;;;;;;25.25;20.27;;;3.10;99.90;;;;;;4915727;28;94728;-29
2022/11/21 11:57:04;;;;;;;24.65;21.50;;;3.10;99.90;;;;;;4929673;28;95400;-31
2022/11/21 11:59:39;;;;;;;25.58;20.52;;;3.10;99.90;;;;;;4935596;28;93158;-31
2022/11/21 12:02:14;;;;;;;33.22;25.33;;;3.20;99.90;;;;;;4924889;28;94877;-33
2022/11/21 12:04:48;;;;;;;27.83;23.70;;;3.20;99.90;;;;;;4911394;28;94500;-35
2022/11/21 12:07:20;;;;;;;29.10;22.77;;;3.20;99.90;;;;;;4920147;28;93144;-30
2022/11/21 12:10:09;;;;;;;30.55;24.02;;;3.20;99.90;;;;;;4919536;28;93901;-33
2022/11/21 12:12:38;;;;;;;28.33;22.70;;;3.20;99.90;;;;;;4918452;28;94809;-35
2022/11/21 12:15:51;;;;;;;29.27;23.58;;;3.20;99.90;;;;;;4918302;28;94632;-31
2022/11/21 12:18:20;;;;;;;28.98;22.92;;;3.20;99.90;;;;;;4906228;28;92353;-33
2022/11/21 12:21:03;;;;;;;28.95;23.05;;;3.30;99.90;;;;;;4917712;28;93308;-32
2022/11/21 12:23:51;;;;;;;31.35;22.65;;;3.20;99.90;;;;;;4918070;28;95640;-33
2022/11/21 12:26:26;;;;;;;31.08;23.35;;;3.20;99.90;;;;;;4919458;28;95562;-33
2022/11/21 12:29:12;;;;;;;34.45;23.48;;;3.20;99.90;;;;;;4919855;28;93290;-31
2022/11/21 12:32:15;;;;;;;26.17;23.00;;;3.20;99.90;;;;;;4918168;28;94403;-31
2022/11/21 12:34:56;;;;;;;27.08;20.45;;;3.20;99.90;;;;;;4918835;28;95091;-35
2022/11/21 12:37:39;;;;;;;27.40;20.90;;;3.30;99.90;;;;;;4919172;28;94615;-32
2022/11/21 12:40:32;;;;;;;26.33;22.27;;;3.30;99.90;;;;;;4917902;28;94431;-33
2022/11/21 12:43:16;;;;;;;27.88;20.52;;;3.40;99.90;;;;;;4919730;28;92051;-32
2022/11/21 12:45:45;;;;;;;26.67;22.80;;;3.40;99.90;;;;;;4918767;28;94891;-31
2022/11/21 12:54:40;;;;;;;28.08;21.02;;;3.50;99.90;;;;;;4918432;28;92316;-34
2022/11/21 12:57:14;;;;;;;23.45;20.33;;;3.60;99.90;;;;;;4932376;28;96166;-31
2022/11/21 13:00:08;;;;;;;28.02;21.52;;;3.60;99.90;;;;;;4938105;28;94254;-33
2022/11/21 13:02:58;;;;;;;28.45;21.60;;;3.60;99.90;;;;;;4938190;28;93107;-31
2022/11/21 13:05:30;;;;;;;22.55;20.13;;;3.60;99.90;;;;;;4938183;28;94086;-33
2022/11/21 13:08:21;;;;;;;28.52;21.73;;;3.70;99.90;;;;;;4938038;28;94636;-31
2022/11/21 13:14:23;;;;;;;26.95;22.15;;;3.70;99.90;;;;;;4937785;28;93888;-32
2022/11/21 13:17:07;;;;;;;32.60;25.85;;;3.70;99.90;;;;;;4937407;28;93328;-34